Terminal Aerodrome Forecast
Issued by NWS

Home | Current Version | Previous Version | Text Only | Print | Product List | Glossary On
Versions: 1 2 3 4 5 6 7 8 9 10 11 12 13 14 15 16 17
000
FTUS46 KMTR 301100
TAFOAK
TAF
KOAK 301124Z 3012/3118 27006KT P6SM OVC007
     FM301700 28008KT P6SM BKN009
     FM301900 29010KT P6SM SCT012
     FM302100 29012KT P6SM FEW010
     FM310200 29010KT P6SM SCT010
     FM310600 29006KT P6SM OVC009
     FM311000 29006KT P6SM OVC007=

USA.gov is the U.S. government's official web portal to all federal, state and local government web resources and services.